createdAt,value
2022-07-31T00:01:48.986Z,1.85
2022-07-31T00:04:34.503Z,1.70
2022-07-31T00:07:19.728Z,1.38
2022-07-31T00:10:06.773Z,1.42
2022-07-31T00:12:52.553Z,1.10
2022-07-31T00:15:37.781Z,0.77
2022-07-31T00:18:23.181Z,0.82
2022-07-31T00:21:08.541Z,0.82
2022-07-31T00:23:53.819Z,0.90
2022-07-31T00:26:39.170Z,1.13
2022-07-31T00:29:24.739Z,1.00
2022-07-31T00:32:11.612Z,1.20
2022-07-31T00:34:57.043Z,1.33
2022-07-31T00:37:43.218Z,1.23
2022-07-31T00:40:29.131Z,0.98
2022-07-31T00:43:15.940Z,1.30
2022-07-31T00:46:01.933Z,1.05
2022-07-31T00:48:47.588Z,1.27
2022-07-31T00:51:33.960Z,1.23
2022-07-31T00:54:22.938Z,1.52
2022-07-31T00:57:09.322Z,2.15
2022-07-31T00:59:54.664Z,2.40
2022-07-31T01:02:46.563Z,2.75
2022-07-31T01:05:32.173Z,3.42
2022-07-31T01:08:17.632Z,3.33
2022-07-31T01:11:12.050Z,3.40
2022-07-31T01:14:03.087Z,4.47
2022-07-31T01:16:51.742Z,3.83
2022-07-31T01:19:43.677Z,3.65
2022-07-31T01:22:57.857Z,4.63
2022-07-31T01:25:59.658Z,4.35
2022-07-31T01:29:16.559Z,4.32
2022-07-31T01:32:10.292Z,3.17
2022-07-31T01:35:15.022Z,3.25
2022-07-31T01:38:15.657Z,2.38
2022-07-31T01:41:04.854Z,2.40
2022-07-31T01:43:54.633Z,2.47
2022-07-31T01:46:43.845Z,2.65
2022-07-31T01:49:32.100Z,2.75
2022-07-31T01:52:19.362Z,2.80
2022-07-31T01:55:05.429Z,2.78
2022-07-31T01:57:51.246Z,3.22
2022-07-31T02:00:38.529Z,2.35
2022-07-31T02:03:43.450Z,2.42
2022-07-31T02:06:32.384Z,2.33
2022-07-31T02:09:21.396Z,2.85
2022-07-31T02:12:09.463Z,2.53
2022-07-31T02:14:57.151Z,2.95
2022-07-31T02:17:45.138Z,2.55
2022-07-31T02:20:57.710Z,2.45
2022-07-31T02:23:44.778Z,2.80
2022-07-31T02:26:33.392Z,3.03
2022-07-31T02:29:21.887Z,3.47
2022-07-31T02:32:08.454Z,2.90
2022-07-31T02:34:58.208Z,2.92
2022-07-31T02:37:45.559Z,2.92
2022-07-31T02:40:32.435Z,2.63
2022-07-31T02:43:20.026Z,2.25
2022-07-31T02:46:07.081Z,2.30
2022-07-31T02:48:52.955Z,2.25
2022-07-31T02:51:43.626Z,2.10
2022-07-31T02:54:30.009Z,2.10
2022-07-31T02:57:15.825Z,2.05
2022-07-31T03:00:01.543Z,1.58
2022-07-31T03:02:47.898Z,1.33
2022-07-31T03:05:33.610Z,1.60
2022-07-31T03:08:19.094Z,1.20
2022-07-31T03:11:07.705Z,1.45
2022-07-31T03:13:55.979Z,1.85
2022-07-31T03:16:43.330Z,1.85
2022-07-31T03:19:29.453Z,1.40
2022-07-31T03:22:15.655Z,1.02
2022-07-31T03:25:03.898Z,1.20
2022-07-31T03:27:55.909Z,1.23
2022-07-31T03:30:42.630Z,1.13
2022-07-31T03:33:28.760Z,1.02
2022-07-31T03:36:14.405Z,1.10
2022-07-31T03:39:00.707Z,1.20
2022-07-31T03:41:57.067Z,1.00
2022-07-31T03:44:44.589Z,1.10
2022-07-31T03:47:30.885Z,1.40
2022-07-31T03:50:17.433Z,1.42
2022-07-31T03:53:08.110Z,1.38
2022-07-31T03:56:00.578Z,1.40
2022-07-31T03:58:52.196Z,1.35
2022-07-31T04:01:56.657Z,1.10
2022-07-31T04:04:54.203Z,1.55
2022-07-31T04:07:40.362Z,1.50
2022-07-31T04:10:26.977Z,1.35
2022-07-31T04:13:13.471Z,1.05
2022-07-31T04:15:59.219Z,1.23
2022-07-31T04:18:48.494Z,1.00
2022-07-31T04:21:37.403Z,1.10
2022-07-31T04:24:23.931Z,1.42
2022-07-31T04:27:32.384Z,0.60
2022-07-31T04:30:17.837Z,0.80
2022-07-31T04:33:04.640Z,0.90
2022-07-31T04:35:50.266Z,1.10
2022-07-31T04:38:36.181Z,0.80
2022-07-31T04:41:21.923Z,1.00
2022-07-31T04:44:07.729Z,0.88
2022-07-31T04:47:14.188Z,0.60
2022-07-31T04:50:08.102Z,1.00
2022-07-31T04:52:53.956Z,0.80
2022-07-31T04:55:40.305Z,1.20
2022-07-31T04:58:25.706Z,0.63
2022-07-31T05:01:11.103Z,1.15
2022-07-31T05:03:57.834Z,0.75
2022-07-31T05:06:46.353Z,0.90
2022-07-31T05:09:33.594Z,0.52
2022-07-31T05:12:24.995Z,1.00
2022-07-31T05:15:10.730Z,0.68
2022-07-31T05:17:56.125Z,0.70
2022-07-31T05:21:15.989Z,0.73
2022-07-31T05:24:16.289Z,0.98
2022-07-31T05:27:21.809Z,0.45
2022-07-31T05:30:08.368Z,0.60
2022-07-31T05:32:55.804Z,1.15
2022-07-31T05:35:43.448Z,0.80
2022-07-31T05:38:29.944Z,0.80
2022-07-31T05:41:41.556Z,0.50
2022-07-31T05:44:33.355Z,0.70
2022-07-31T05:47:18.905Z,0.70
2022-07-31T05:50:05.338Z,0.73
2022-07-31T05:52:50.993Z,0.60
2022-07-31T05:55:58.918Z,0.40
2022-07-31T05:58:51.258Z,0.55
2022-07-31T06:01:37.287Z,0.55
2022-07-31T06:04:24.510Z,0.65
2022-07-31T06:07:10.525Z,0.47
2022-07-31T06:09:58.010Z,0.65
2022-07-31T06:12:43.324Z,0.55
2022-07-31T06:15:33.174Z,1.00
2022-07-31T06:18:22.143Z,0.73
2022-07-31T06:21:08.465Z,0.68
2022-07-31T06:23:54.223Z,0.50
2022-07-31T06:26:50.038Z,0.52
2022-07-31T06:29:41.394Z,0.60
2022-07-31T06:32:29.238Z,0.43
2022-07-31T06:35:14.800Z,0.60
2022-07-31T06:38:24.478Z,0.73
2022-07-31T06:41:47.486Z,0.57
2022-07-31T06:44:55.842Z,0.55
2022-07-31T06:48:00.405Z,0.50
2022-07-31T06:51:29.650Z,0.82
2022-07-31T06:54:12.511Z,0.52
2022-07-31T06:56:58.057Z,0.50
2022-07-31T06:59:43.437Z,0.50
2022-07-31T07:02:30.496Z,0.50
2022-07-31T07:05:16.587Z,0.43
2022-07-31T07:08:02.370Z,0.55
2022-07-31T07:10:49.863Z,0.50
2022-07-31T07:13:45.584Z,0.73
2022-07-31T07:16:34.545Z,0.55
2022-07-31T07:19:20.737Z,0.70
2022-07-31T07:22:07.815Z,0.75
2022-07-31T07:24:53.232Z,0.80
2022-07-31T07:27:41.948Z,0.88
2022-07-31T07:30:28.784Z,0.98
2022-07-31T07:33:41.604Z,1.48
2022-07-31T07:36:24.901Z,1.17
2022-07-31T07:39:15.178Z,1.17
2022-07-31T07:42:02.346Z,1.25
2022-07-31T07:44:48.429Z,1.23
2022-07-31T07:47:53.764Z,1.25
2022-07-31T07:50:40.047Z,1.25
2022-07-31T07:53:48.305Z,0.82
2022-07-31T07:56:56.868Z,1.10
2022-07-31T08:00:07.118Z,0.90
2022-07-31T08:03:49.537Z,1.05
2022-07-31T08:06:16.845Z,1.15
2022-07-31T08:09:03.101Z,1.05
2022-07-31T08:12:14.689Z,1.50
2022-07-31T08:15:19.494Z,1.30
2022-07-31T08:18:32.243Z,1.13
2022-07-31T08:21:17.889Z,0.98
2022-07-31T08:24:03.532Z,1.05
2022-07-31T08:27:11.283Z,0.75
2022-07-31T08:30:02.728Z,1.10
2022-07-31T08:32:48.828Z,0.55
2022-07-31T08:35:50.635Z,0.82
2022-07-31T08:38:39.270Z,0.80
2022-07-31T08:41:43.783Z,0.70
2022-07-31T08:44:31.166Z,0.85
2022-07-31T08:47:18.047Z,0.90
2022-07-31T08:50:08.755Z,1.00
2022-07-31T08:52:57.028Z,1.00
2022-07-31T08:56:08.373Z,0.55
2022-07-31T08:58:57.126Z,1.08
2022-07-31T09:01:42.653Z,0.80
2022-07-31T09:04:29.049Z,0.95
2022-07-31T09:07:16.415Z,0.60
2022-07-31T09:10:07.303Z,0.80
2022-07-31T09:12:55.040Z,0.80
2022-07-31T09:15:42.981Z,0.88
2022-07-31T09:18:28.851Z,0.70
2022-07-31T09:21:21.483Z,0.70
2022-07-31T09:24:08.544Z,0.95
2022-07-31T09:27:08.958Z,0.70
2022-07-31T09:29:56.948Z,0.70
2022-07-31T09:33:19.031Z,0.60
2022-07-31T09:36:24.521Z,0.70
2022-07-31T09:39:20.499Z,0.60
2022-07-31T09:42:45.524Z,0.82
2022-07-31T09:45:48.457Z,0.80
2022-07-31T09:48:36.344Z,0.80
2022-07-31T09:51:23.810Z,1.00
2022-07-31T09:54:27.076Z,0.85
2022-07-31T09:57:18.667Z,0.68
2022-07-31T10:00:15.377Z,0.70
2022-07-31T10:03:04.197Z,0.70
2022-07-31T10:05:51.996Z,0.65
2022-07-31T10:08:39.073Z,0.57
2022-07-31T10:11:45.447Z,0.68
2022-07-31T10:14:40.406Z,0.30
2022-07-31T10:17:33.788Z,0.57
2022-07-31T10:20:54.772Z,0.50
2022-07-31T10:24:05.621Z,0.60
2022-07-31T10:27:01.727Z,0.70
2022-07-31T10:29:54.599Z,0.60
2022-07-31T10:32:40.340Z,0.73
2022-07-31T10:36:08.976Z,0.50
2022-07-31T10:39:28.585Z,0.75
2022-07-31T10:42:45.712Z,0.77
2022-07-31T10:45:32.250Z,1.00
2022-07-31T10:48:52.837Z,1.00
2022-07-31T10:52:07.816Z,1.10
2022-07-31T10:55:25.928Z,1.10
2022-07-31T10:58:30.399Z,0.98
2022-07-31T11:01:16.885Z,0.90
2022-07-31T11:04:34.757Z,0.90
2022-07-31T11:07:29.919Z,1.08
2022-07-31T11:10:34.331Z,1.30
2022-07-31T11:13:21.584Z,1.20
2022-07-31T11:16:26.945Z,1.10
2022-07-31T11:19:21.581Z,1.25
2022-07-31T11:22:31.644Z,1.73
2022-07-31T11:25:18.902Z,1.52
2022-07-31T11:28:23.689Z,0.90
2022-07-31T11:31:09.938Z,0.95
2022-07-31T11:33:55.549Z,0.93
2022-07-31T11:36:43.426Z,1.20
2022-07-31T11:39:36.478Z,0.93
2022-07-31T11:42:26.512Z,0.85
2022-07-31T11:45:16.949Z,0.70
2022-07-31T11:48:11.768Z,1.08
2022-07-31T11:51:01.148Z,0.90
2022-07-31T11:53:57.114Z,0.90
2022-07-31T11:56:43.343Z,0.98
2022-07-31T11:59:45.299Z,0.90
2022-07-31T12:02:32.462Z,0.77
2022-07-31T12:05:18.177Z,1.00
2022-07-31T12:08:24.588Z,1.10
2022-07-31T12:11:12.946Z,0.90
2022-07-31T12:13:59.515Z,0.80
2022-07-31T12:16:45.282Z,1.23
2022-07-31T12:19:37.484Z,0.90
2022-07-31T12:22:25.547Z,0.95
2022-07-31T12:25:12.766Z,0.70
2022-07-31T12:27:58.224Z,0.70
2022-07-31T12:30:44.687Z,0.98
2022-07-31T12:33:41.085Z,1.38
2022-07-31T12:36:27.444Z,0.98
2022-07-31T12:39:13.428Z,1.10
2022-07-31T12:41:59.056Z,1.02
2022-07-31T12:44:52.128Z,0.90
2022-07-31T12:47:38.027Z,1.20
2022-07-31T12:50:26.591Z,0.82
2022-07-31T12:53:12.081Z,1.55
2022-07-31T12:55:58.022Z,1.05
2022-07-31T12:58:43.305Z,1.00
2022-07-31T13:01:29.922Z,0.90
2022-07-31T13:04:18.930Z,1.15
2022-07-31T13:07:05.568Z,1.23
2022-07-31T13:10:20.900Z,1.10
2022-07-31T13:12:57.004Z,1.08
2022-07-31T13:15:42.756Z,1.25
2022-07-31T13:18:30.188Z,1.10
2022-07-31T13:21:15.477Z,0.95
2022-07-31T13:24:00.832Z,1.10
2022-07-31T13:26:47.220Z,1.48
2022-07-31T13:29:32.782Z,0.93
2022-07-31T13:32:18.260Z,1.20
2022-07-31T13:35:26.364Z,1.10
2022-07-31T13:38:10.202Z,1.27
2022-07-31T13:41:14.012Z,0.90
2022-07-31T13:44:00.902Z,0.88
2022-07-31T13:46:46.775Z,1.23
2022-07-31T13:49:32.616Z,0.80
2022-07-31T13:52:18.329Z,0.63
2022-07-31T13:55:03.982Z,0.73
2022-07-31T13:57:49.568Z,0.60
2022-07-31T14:00:35.104Z,0.65
2022-07-31T14:03:21.270Z,0.73
2022-07-31T14:06:07.978Z,0.57
2022-07-31T14:08:53.384Z,0.70
2022-07-31T14:11:39.382Z,0.40
2022-07-31T14:14:25.324Z,0.60
2022-07-31T14:17:11.008Z,0.40
2022-07-31T14:19:56.414Z,0.55
2022-07-31T14:22:43.151Z,0.40
2022-07-31T14:25:30.025Z,0.57
2022-07-31T14:28:15.318Z,0.52
2022-07-31T14:31:01.491Z,0.65
2022-07-31T14:33:47.453Z,0.68
2022-07-31T14:36:32.873Z,0.82
2022-07-31T14:39:18.332Z,0.60
2022-07-31T14:42:04.837Z,1.02
2022-07-31T14:44:50.732Z,0.55
2022-07-31T14:47:36.144Z,0.60
2022-07-31T14:50:23.314Z,0.70
2022-07-31T14:53:10.820Z,0.70
2022-07-31T14:55:56.232Z,1.00
2022-07-31T14:58:57.761Z,0.68
2022-07-31T15:01:44.482Z,0.60
2022-07-31T15:04:29.850Z,0.50
2022-07-31T15:07:34.323Z,0.40
2022-07-31T15:10:21.007Z,0.55
2022-07-31T15:13:06.736Z,0.43
2022-07-31T15:15:52.097Z,0.60
2022-07-31T15:18:37.381Z,0.60
2022-07-31T15:21:22.949Z,0.40
2022-07-31T15:24:08.838Z,0.55
2022-07-31T15:26:54.551Z,0.60
2022-07-31T15:30:04.048Z,0.60
2022-07-31T15:32:45.961Z,0.60
2022-07-31T15:35:31.398Z,0.82
2022-07-31T15:38:16.767Z,0.55
2022-07-31T15:41:02.480Z,0.88
2022-07-31T15:43:48.476Z,0.80
2022-07-31T15:46:33.910Z,0.43
2022-07-31T15:49:19.477Z,0.70
2022-07-31T15:52:05.735Z,0.80
2022-07-31T15:55:05.883Z,0.60
2022-07-31T15:57:51.454Z,0.70
2022-07-31T16:00:36.609Z,0.52
2022-07-31T16:03:22.580Z,0.95
2022-07-31T16:06:07.923Z,0.85
2022-07-31T16:09:00.169Z,0.60
2022-07-31T16:12:04.619Z,0.93
2022-07-31T16:14:51.311Z,1.63
2022-07-31T16:17:38.616Z,0.90
2022-07-31T16:20:26.806Z,0.80
2022-07-31T16:23:12.912Z,0.50
2022-07-31T16:25:58.092Z,0.70
2022-07-31T16:28:43.544Z,0.60
2022-07-31T16:31:30.262Z,1.13
2022-07-31T16:34:16.489Z,0.60
2022-07-31T16:37:02.262Z,1.33
2022-07-31T16:39:48.665Z,0.80
2022-07-31T16:42:33.928Z,0.60
2022-07-31T16:45:20.209Z,0.60
2022-07-31T16:48:06.113Z,0.50
2022-07-31T16:50:54.086Z,0.47
2022-07-31T16:54:13.196Z,0.60
2022-07-31T16:56:45.575Z,0.75
2022-07-31T16:59:30.850Z,0.57
2022-07-31T17:02:16.802Z,0.88
2022-07-31T17:05:02.624Z,0.60
2022-07-31T17:07:48.014Z,0.57
2022-07-31T17:10:33.595Z,0.57
2022-07-31T17:13:19.719Z,0.60
2022-07-31T17:16:05.595Z,0.82
2022-07-31T17:18:54.449Z,0.80
2022-07-31T17:21:43.939Z,0.60
2022-07-31T17:24:31.780Z,0.80
2022-07-31T17:27:19.321Z,0.60
2022-07-31T17:30:05.674Z,0.60
2022-07-31T17:32:51.273Z,0.70
2022-07-31T17:35:37.094Z,0.45
2022-07-31T17:38:23.094Z,0.50
2022-07-31T17:41:08.696Z,0.65
2022-07-31T17:44:11.347Z,0.60
2022-07-31T17:46:58.057Z,0.70
2022-07-31T17:49:43.620Z,0.85
2022-07-31T17:52:29.846Z,0.90
2022-07-31T17:55:15.228Z,0.50
2022-07-31T17:58:00.643Z,0.75
2022-07-31T18:00:46.328Z,0.70
2022-07-31T18:03:31.999Z,0.68
2022-07-31T18:06:17.397Z,0.50
2022-07-31T18:09:02.959Z,0.60
2022-07-31T18:11:49.324Z,0.50
2022-07-31T18:14:34.915Z,0.40
2022-07-31T18:17:20.830Z,0.43
2022-07-31T18:20:07.365Z,0.50
2022-07-31T18:22:52.638Z,0.40
2022-07-31T18:25:38.589Z,0.45
2022-07-31T18:28:24.292Z,0.40
2022-07-31T18:31:13.225Z,0.52
2022-07-31T18:34:16.109Z,0.60
2022-07-31T18:37:01.680Z,0.60
2022-07-31T18:39:47.969Z,0.60
2022-07-31T18:42:35.221Z,0.98
2022-07-31T18:45:20.711Z,0.90
2022-07-31T18:48:06.408Z,0.63
2022-07-31T18:50:58.775Z,1.00
2022-07-31T18:53:49.501Z,0.80
2022-07-31T18:56:35.665Z,0.75
2022-07-31T18:59:21.310Z,1.08
2022-07-31T19:02:11.335Z,0.52
2022-07-31T19:04:57.818Z,0.82
2022-07-31T19:07:43.174Z,1.00
2022-07-31T19:10:34.528Z,0.80
2022-07-31T19:13:23.462Z,0.77
2022-07-31T19:16:09.070Z,1.00
2022-07-31T19:18:56.083Z,0.77
2022-07-31T19:21:43.485Z,1.13
2022-07-31T19:24:29.149Z,0.95
2022-07-31T19:27:14.472Z,1.25
2022-07-31T19:29:59.837Z,1.08
2022-07-31T19:32:45.398Z,1.02
2022-07-31T19:35:31.011Z,0.90
2022-07-31T19:38:16.845Z,1.02
2022-07-31T19:41:02.829Z,1.40
2022-07-31T19:43:50.060Z,1.25
2022-07-31T19:46:36.987Z,1.23
2022-07-31T19:49:22.555Z,1.45
2022-07-31T19:52:08.551Z,1.38
2022-07-31T19:54:54.218Z,1.50
2022-07-31T19:57:39.890Z,1.67
2022-07-31T20:00:25.383Z,1.60
2022-07-31T20:03:11.191Z,1.38
2022-07-31T20:05:57.422Z,1.17
2022-07-31T20:08:43.289Z,1.17
2022-07-31T20:11:28.667Z,1.60
2022-07-31T20:14:14.020Z,1.42
2022-07-31T20:16:59.547Z,1.70
2022-07-31T20:20:01.504Z,1.27
2022-07-31T20:22:50.879Z,1.10
2022-07-31T20:25:36.323Z,1.38
2022-07-31T20:28:21.917Z,1.50
2022-07-31T20:31:16.213Z,1.55
2022-07-31T20:34:07.597Z,1.10
2022-07-31T20:37:00.488Z,1.33
2022-07-31T20:39:46.069Z,1.40
2022-07-31T20:42:32.037Z,1.08
2022-07-31T20:45:17.219Z,1.27
2022-07-31T20:48:02.624Z,1.30
2022-07-31T20:50:48.595Z,5.50
2022-07-31T20:53:34.406Z,21.27
2022-07-31T20:56:20.812Z,22.13
2022-07-31T20:59:06.220Z,8.65
2022-07-31T21:01:51.767Z,7.35
2022-07-31T21:04:37.533Z,5.50
2022-07-31T21:07:22.830Z,4.72
2022-07-31T21:10:09.067Z,3.47
2022-07-31T21:12:55.820Z,2.28
2022-07-31T21:15:45.153Z,4.07
2022-07-31T21:18:34.519Z,3.25
2022-07-31T21:21:21.946Z,3.83
2022-07-31T21:24:08.110Z,2.72
2022-07-31T21:26:57.953Z,2.15
2022-07-31T21:29:44.210Z,2.25
2022-07-31T21:32:29.818Z,1.55
2022-07-31T21:35:16.072Z,1.75
2022-07-31T21:38:22.560Z,1.33
2022-07-31T21:41:08.811Z,2.10
2022-07-31T21:43:58.797Z,1.52
2022-07-31T21:46:48.163Z,1.45
2022-07-31T21:49:38.381Z,1.50
2022-07-31T21:52:24.265Z,1.17
2022-07-31T21:55:10.034Z,1.50
2022-07-31T21:57:59.841Z,1.45
2022-07-31T22:00:46.072Z,1.83
2022-07-31T22:03:32.520Z,1.13
2022-07-31T22:06:36.506Z,2.08
2022-07-31T22:09:24.905Z,1.27
2022-07-31T22:12:10.963Z,1.70
2022-07-31T22:14:57.358Z,1.70
2022-07-31T22:17:43.028Z,1.77
2022-07-31T22:20:28.604Z,1.67
2022-07-31T22:23:14.778Z,1.98
2022-07-31T22:26:00.499Z,1.83
2022-07-31T22:28:47.578Z,1.80
2022-07-31T22:31:33.231Z,1.67
2022-07-31T22:34:37.556Z,1.73
2022-07-31T22:37:26.162Z,1.58
2022-07-31T22:40:11.782Z,1.42
2022-07-31T22:42:58.328Z,1.83
2022-07-31T22:45:43.923Z,1.50
2022-07-31T22:48:31.063Z,2.13
2022-07-31T22:51:16.804Z,1.55
2022-07-31T22:54:02.542Z,1.85
2022-07-31T22:56:48.132Z,2.33
2022-07-31T22:59:33.900Z,1.65
2022-07-31T23:02:19.867Z,2.42
2022-07-31T23:05:06.836Z,1.70
2022-07-31T23:07:52.209Z,2.00
2022-07-31T23:10:37.623Z,1.92
2022-07-31T23:13:23.246Z,2.20
2022-07-31T23:16:08.564Z,1.80
2022-07-31T23:18:55.268Z,2.50
2022-07-31T23:21:41.020Z,2.30
2022-07-31T23:24:26.503Z,2.42
2022-07-31T23:27:11.877Z,2.90
2022-07-31T23:29:58.799Z,2.53
2022-07-31T23:32:44.073Z,2.65
2022-07-31T23:35:29.403Z,2.42
2022-07-31T23:38:14.672Z,2.50
2022-07-31T23:41:00.002Z,2.33
2022-07-31T23:43:54.339Z,2.92
2022-07-31T23:46:41.443Z,2.50
2022-07-31T23:49:27.372Z,2.20
2022-07-31T23:52:13.253Z,2.50
2022-07-31T23:54:59.007Z,2.25
2022-07-31T23:57:44.237Z,2.53
